Time;durP1;ratioP1;P1;durP2;ratioP2;P2;SDS_P1;SDS_P2;PMS_P1;PMS_P2;Temp;Humidity;BMP_temperature;BMP_pressure;BME280_temperature;BME280_humidity;BME280_pressure;Samples;Min_cycle;Max_cycle;Signal;HPM_P1;HPM_P2
2023/04/02 00:02:26;;;;;;;5.10;2.35;;;;;;;;;;5009720;28;20044;-73
2023/04/02 00:05:14;;;;;;;7.97;2.70;;;;;;;;;;5008149;28;20061;-73
2023/04/02 00:07:43;;;;;;;7.22;2.50;;;;;;;;;;5011063;28;20132;-73
2023/04/02 00:10:29;;;;;;;5.45;1.98;;;;;;;;;;5010856;28;20045;-73
2023/04/02 00:13:11;;;;;;;11.88;2.83;;;;;;;;;;5011011;28;20033;-74
2023/04/02 00:15:38;;;;;;;12.32;2.97;;;;;;;;;;5012394;28;20064;-73
2023/04/02 00:18:04;;;;;;;5.97;2.17;;;;;;;;;;5007962;28;20066;-73
2023/04/02 00:20:33;;;;;;;4.57;2.22;;;;;;;;;;5011036;28;20103;-73
2023/04/02 00:22:59;;;;;;;15.38;2.72;;;;;;;;;;5010981;28;20037;-73
2023/04/02 00:25:27;;;;;;;7.45;2.33;;;;;;;;;;5010827;28;20048;-72
2023/04/02 00:27:54;;;;;;;9.32;2.42;;;;;;;;;;5006534;28;20064;-72
2023/04/02 00:30:20;;;;;;;8.18;2.40;;;;;;;;;;5008092;28;21222;-72
2023/04/02 00:32:47;;;;;;;8.05;2.22;;;;;;;;;;5006711;28;20444;-73
2023/04/02 00:35:25;;;;;;;2.63;1.95;;;;;;;;;;5013352;28;20040;-72
2023/04/02 00:37:52;;;;;;;5.30;2.33;;;;;;;;;;4995298;28;20049;-74
2023/04/02 00:40:28;;;;;;;6.38;2.22;;;;;;;;;;5010449;28;20053;-74
2023/04/02 00:42:57;;;;;;;6.65;2.65;;;;;;;;;;5011386;28;20053;-75
2023/04/02 00:45:23;;;;;;;4.82;2.30;;;;;;;;;;5009920;28;20044;-74
2023/04/02 00:47:49;;;;;;;4.30;2.30;;;;;;;;;;5011074;28;20088;-75
2023/04/02 00:50:15;;;;;;;9.15;2.55;;;;;;;;;;5009150;28;20044;-72
2023/04/02 00:52:44;;;;;;;5.95;2.55;;;;;;;;;;5007479;28;20445;-73
2023/04/02 00:55:16;;;;;;;9.63;2.28;;;;;;;;;;5008210;28;20135;-73
2023/04/02 00:57:43;;;;;;;6.63;2.53;;;;;;;;;;5013158;28;20064;-72
2023/04/02 01:00:19;;;;;;;7.80;2.38;;;;;;;;;;4995752;28;20847;-73
2023/04/02 01:03:05;;;;;;;4.25;2.38;;;;;;;;;;5010333;28;20045;-72
2023/04/02 01:05:34;;;;;;;9.15;2.42;;;;;;;;;;5012361;28;20041;-72
2023/04/02 01:08:09;;;;;;;6.78;2.92;;;;;;;;;;5012463;28;20037;-72
2023/04/02 01:10:53;;;;;;;6.45;2.33;;;;;;;;;;5013427;28;20044;-73
2023/04/02 01:13:36;;;;;;;7.70;3.05;;;;;;;;;;5010083;28;21006;-72
2023/04/02 01:16:15;;;;;;;6.45;2.17;;;;;;;;;;4969263;28;1129975;-72
2023/04/02 01:18:49;;;;;;;5.65;2.10;;;;;;;;;;5013015;28;20068;-72
2023/04/02 01:21:20;;;;;;;6.68;2.30;;;;;;;;;;5010048;28;20106;-72
2023/04/02 01:23:46;;;;;;;7.07;2.08;;;;;;;;;;5008947;28;20135;-73
2023/04/02 01:26:26;;;;;;;6.05;3.38;;;;;;;;;;5027216;28;20049;-72
2023/04/02 01:29:00;;;;;;;5.90;2.20;;;;;;;;;;5008996;28;20828;-72
2023/04/02 01:31:26;;;;;;;4.85;1.83;;;;;;;;;;5010928;28;20045;-73
2023/04/02 01:33:53;;;;;;;25.05;5.65;;;;;;;;;;5011752;28;20053;-72
2023/04/02 01:36:32;;;;;;;5.13;1.88;;;;;;;;;;5012074;28;20509;-72
2023/04/02 01:39:08;;;;;;;3.92;1.95;;;;;;;;;;5014679;28;20108;-72
2023/04/02 01:41:40;;;;;;;5.18;2.08;;;;;;;;;;5011571;28;20492;-72
2023/04/02 01:44:07;;;;;;;4.95;1.90;;;;;;;;;;5011868;28;20052;-74
2023/04/02 01:46:34;;;;;;;12.90;3.97;;;;;;;;;;5013314;28;20051;-75
2023/04/02 01:49:02;;;;;;;6.93;1.95;;;;;;;;;;5014318;28;20045;-75
2023/04/02 01:51:31;;;;;;;9.73;2.40;;;;;;;;;;5010448;28;21940;-73
2023/04/02 01:53:59;;;;;;;5.22;1.60;;;;;;;;;;5003915;28;20052;-72
2023/04/02 01:56:26;;;;;;;3.03;2.05;;;;;;;;;;5004267;28;20536;-73
2023/04/02 01:58:52;;;;;;;5.28;2.13;;;;;;;;;;5001483;28;20501;-73
2023/04/02 02:01:24;;;;;;;4.70;1.77;;;;;;;;;;5001343;28;21628;-72
2023/04/02 02:03:51;;;;;;;6.75;1.50;;;;;;;;;;4997660;28;20049;-72
2023/04/02 02:06:18;;;;;;;4.63;1.92;;;;;;;;;;5008278;28;21880;-73
2023/04/02 02:08:48;;;;;;;7.63;2.00;;;;;;;;;;4993558;28;20132;-73
2023/04/02 02:11:15;;;;;;;6.32;2.03;;;;;;;;;;5006667;28;20053;-72
2023/04/02 02:13:45;;;;;;;4.43;1.80;;;;;;;;;;5002611;28;20155;-72
2023/04/02 02:16:16;;;;;;;4.88;1.40;;;;;;;;;;5001109;28;20099;-72
2023/04/02 02:18:43;;;;;;;6.07;1.77;;;;;;;;;;4999585;28;20064;-73
2023/04/02 02:21:09;;;;;;;5.13;1.98;;;;;;;;;;5001700;28;20045;-72
2023/04/02 02:23:36;;;;;;;7.57;1.65;;;;;;;;;;5008309;28;20551;-73
2023/04/02 02:26:04;;;;;;;4.65;1.60;;;;;;;;;;4989542;28;20054;-73
2023/04/02 02:28:37;;;;;;;6.15;2.17;;;;;;;;;;5009198;28;20080;-73
2023/04/02 02:31:11;;;;;;;5.43;1.48;;;;;;;;;;5010571;28;20076;-72
2023/04/02 02:33:46;;;;;;;7.00;1.65;;;;;;;;;;5009447;28;20060;-72
2023/04/02 02:36:22;;;;;;;4.35;1.98;;;;;;;;;;5008404;28;20155;-73
2023/04/02 02:38:51;;;;;;;8.45;2.10;;;;;;;;;;5011113;28;20033;-73
2023/04/02 02:41:26;;;;;;;9.27;1.73;;;;;;;;;;5010122;28;20033;-73
2023/04/02 02:44:04;;;;;;;7.75;1.98;;;;;;;;;;5011051;28;20099;-72
2023/04/02 02:46:32;;;;;;;10.57;2.03;;;;;;;;;;5011728;28;20053;-72
2023/04/02 02:48:59;;;;;;;5.72;1.70;;;;;;;;;;5013753;28;20630;-73
2023/04/02 02:51:37;;;;;;;6.25;1.60;;;;;;;;;;5011354;28;20052;-72
2023/04/02 02:54:04;;;;;;;5.28;2.08;;;;;;;;;;5010140;28;20124;-72
2023/04/02 02:56:33;;;;;;;5.95;1.75;;;;;;;;;;5027310;28;20098;-72
2023/04/02 02:59:00;;;;;;;6.57;1.77;;;;;;;;;;5011079;28;20584;-74
2023/04/02 03:01:28;;;;;;;6.30;1.67;;;;;;;;;;5011382;28;20059;-74
2023/04/02 03:03:54;;;;;;;7.97;2.25;;;;;;;;;;5012034;28;20049;-74
2023/04/02 03:06:23;;;;;;;8.90;2.15;;;;;;;;;;4994487;28;20490;-74
2023/04/02 03:09:00;;;;;;;5.97;1.75;;;;;;;;;;5011005;28;20041;-74
2023/04/02 03:11:56;;;;;;;5.70;1.98;;;;;;;;;;5012567;28;20060;-74
2023/04/02 03:14:33;;;;;;;3.65;1.30;;;;;;;;;;4993686;28;20140;-74
2023/04/02 03:17:20;;;;;;;4.63;1.55;;;;;;;;;;5010183;28;21507;-75
2023/04/02 03:19:49;;;;;;;9.65;2.00;;;;;;;;;;5009396;28;20112;-74
2023/04/02 03:22:23;;;;;;;4.85;1.58;;;;;;;;;;5007747;28;20084;-74
2023/04/02 03:24:52;;;;;;;4.70;1.50;;;;;;;;;;5008686;28;20048;-74
2023/04/02 03:27:32;;;;;;;3.00;1.50;;;;;;;;;;5009712;28;20076;-74
2023/04/02 03:30:03;;;;;;;5.72;1.80;;;;;;;;;;5009537;28;20045;-74
2023/04/02 03:32:32;;;;;;;5.00;1.60;;;;;;;;;;5009485;28;20041;-75
2023/04/02 03:35:01;;;;;;;8.75;2.80;;;;;;;;;;5008715;28;20127;-74
2023/04/02 03:37:27;;;;;;;5.22;1.85;;;;;;;;;;5008557;28;20037;-74
2023/04/02 03:40:08;;;;;;;7.75;1.80;;;;;;;;;;5009987;28;20120;-74
2023/04/02 03:42:42;;;;;;;4.10;1.50;;;;;;;;;;5007827;28;21193;-74
2023/04/02 03:45:14;;;;;;;4.45;1.60;;;;;;;;;;5009292;28;20041;-74
2023/04/02 03:47:46;;;;;;;7.18;1.40;;;;;;;;;;5005776;28;20053;-74
2023/04/02 03:50:28;;;;;;;7.43;1.77;;;;;;;;;;5011653;28;20513;-74
2023/04/02 03:52:54;;;;;;;2.55;1.50;;;;;;;;;;5007777;28;20037;-74
2023/04/02 03:55:28;;;;;;;5.07;1.30;;;;;;;;;;5007358;28;20511;-74
2023/04/02 03:58:13;;;;;;;9.98;1.70;;;;;;;;;;5012898;28;20045;-75
2023/04/02 04:00:42;;;;;;;6.43;1.80;;;;;;;;;;5011968;28;20053;-74
2023/04/02 04:03:14;;;;;;;9.90;2.40;;;;;;;;;;5010622;28;20040;-74
2023/04/02 04:05:46;;;;;;;3.33;1.48;;;;;;;;;;5011223;28;22824;-74
2023/04/02 04:08:14;;;;;;;6.50;1.65;;;;;;;;;;5009327;28;20111;-74
2023/04/02 04:10:41;;;;;;;7.22;1.38;;;;;;;;;;5008299;28;20829;-74
2023/04/02 04:13:15;;;;;;;5.60;1.60;;;;;;;;;;5007017;28;20041;-74
2023/04/02 04:16:17;;;;;;;4.47;1.50;;;;;;;;;;5008720;28;20614;-74
2023/04/02 04:18:55;;;;;;;5.65;1.55;;;;;;;;;;4996228;28;21633;-74
2023/04/02 04:21:30;;;;;;;8.60;1.85;;;;;;;;;;5002759;28;20057;-74
2023/04/02 04:23:55;;;;;;;;;;;;;;;;;;5008169;28;20059;-75
2023/04/02 04:26:34;;;;;;;7.40;1.50;;;;;;;;;;5010225;28;20556;-75
2023/04/02 04:29:08;;;;;;;6.22;1.58;;;;;;;;;;5008366;28;20080;-74
2023/04/02 04:31:37;;;;;;;;;;;;;;;;;;5006786;28;20041;-74
2023/04/02 04:34:07;;;;;;;6.00;1.52;;;;;;;;;;5010948;28;21748;-75
2023/04/02 04:36:46;;;;;;;4.72;1.50;;;;;;;;;;5006639;28;20045;-74
2023/04/02 04:39:17;;;;;;;4.90;1.65;;;;;;;;;;5007384;28;20053;-74
2023/04/02 04:41:44;;;;;;;9.18;2.50;;;;;;;;;;5008331;28;20041;-74
2023/04/02 04:44:16;;;;;;;6.10;1.52;;;;;;;;;;5011723;28;20052;-74
2023/04/02 04:46:48;;;;;;;5.88;1.23;;;;;;;;;;5006417;28;20832;-75
2023/04/02 04:49:20;;;;;;;3.30;1.40;;;;;;;;;;5007477;28;20049;-74
2023/04/02 04:51:52;;;;;;;6.22;1.70;;;;;;;;;;5005893;28;20097;-74
2023/04/02 04:54:19;;;;;;;11.15;2.17;;;;;;;;;;5001908;28;20123;-75
2023/04/02 04:56:49;;;;;;;9.10;1.73;;;;;;;;;;5006036;28;20045;-74
2023/04/02 04:59:22;;;;;;;5.80;1.67;;;;;;;;;;5007208;28;20037;-74
2023/04/02 05:01:55;;;;;;;7.28;1.95;;;;;;;;;;5005655;28;20041;-74
2023/04/02 05:04:30;;;;;;;8.63;1.70;;;;;;;;;;5008273;28;20053;-74
2023/04/02 05:07:15;;;;;;;6.10;1.77;;;;;;;;;;5006711;28;20319;-74
2023/04/02 05:10:00;;;;;;;9.05;1.85;;;;;;;;;;5005658;28;20037;-74
2023/04/02 05:12:35;;;;;;;6.55;1.63;;;;;;;;;;5006976;28;20037;-74
2023/04/02 05:15:05;;;;;;;7.38;1.70;;;;;;;;;;5007543;28;20065;-74
2023/04/02 05:17:31;;;;;;;7.60;2.17;;;;;;;;;;5005213;28;21158;-74
2023/04/02 05:20:08;;;;;;;6.43;1.70;;;;;;;;;;5002376;28;21194;-74
2023/04/02 05:22:37;;;;;;;4.95;1.30;;;;;;;;;;5002733;28;20049;-74
2023/04/02 05:25:13;;;;;;;5.15;1.33;;;;;;;;;;5000424;28;20055;-74
2023/04/02 05:27:48;;;;;;;4.75;1.45;;;;;;;;;;5003297;28;20033;-74
2023/04/02 05:30:17;;;;;;;9.18;2.25;;;;;;;;;;5005809;28;20048;-74
2023/04/02 05:32:47;;;;;;;3.97;1.67;;;;;;;;;;5009332;28;20053;-74
2023/04/02 05:35:17;;;;;;;9.00;2.13;;;;;;;;;;5007514;28;20440;-74
2023/04/02 05:37:44;;;;;;;5.28;1.80;;;;;;;;;;5006472;28;20137;-74
2023/04/02 05:40:19;;;;;;;3.53;1.42;;;;;;;;;;5004489;28;20115;-74
2023/04/02 05:42:48;;;;;;;6.20;1.65;;;;;;;;;;4990368;28;20530;-74
2023/04/02 05:45:23;;;;;;;5.72;1.45;;;;;;;;;;5006670;28;20065;-72
2023/04/02 05:47:51;;;;;;;5.30;1.58;;;;;;;;;;5007963;28;20041;-73
2023/04/02 05:50:39;;;;;;;6.15;1.50;;;;;;;;;;5008657;28;20123;-74
2023/04/02 05:53:26;;;;;;;5.10;1.27;;;;;;;;;;4991899;28;20046;-72
2023/04/02 05:55:52;;;;;;;4.68;1.20;;;;;;;;;;5024843;28;20154;-72
2023/04/02 05:58:26;;;;;;;6.13;1.38;;;;;;;;;;5012026;28;20049;-72
2023/04/02 06:01:03;;;;;;;4.15;1.35;;;;;;;;;;5010339;28;20555;-72
2023/04/02 06:03:48;;;;;;;6.25;1.50;;;;;;;;;;5006286;28;20045;-72
2023/04/02 06:06:22;;;;;;;3.72;1.13;;;;;;;;;;5010795;28;20056;-72
2023/04/02 06:08:52;;;;;;;8.05;1.65;;;;;;;;;;4995538;28;20050;-73
2023/04/02 06:11:21;;;;;;;2.33;1.38;;;;;;;;;;5010593;28;20179;-73
2023/04/02 06:13:48;;;;;;;5.07;1.23;;;;;;;;;;5008945;28;20058;-72
2023/04/02 06:16:15;;;;;;;4.13;1.15;;;;;;;;;;5010596;28;20064;-72
2023/04/02 06:18:42;;;;;;;7.88;1.40;;;;;;;;;;5009542;28;20132;-72
2023/04/02 06:21:11;;;;;;;4.82;1.20;;;;;;;;;;5005980;28;21232;-72
2023/04/02 06:23:41;;;;;;;2.67;1.13;;;;;;;;;;5009984;28;20063;-72
2023/04/02 06:26:09;;;;;;;3.80;1.02;;;;;;;;;;5012534;28;20059;-73
2023/04/02 06:28:40;;;;;;;5.43;1.52;;;;;;;;;;5011622;28;20045;-73
2023/04/02 06:31:10;;;;;;;5.25;1.23;;;;;;;;;;5007677;28;20033;-73
2023/04/02 06:33:36;;;;;;;2.40;1.30;;;;;;;;;;5008046;28;20033;-72
2023/04/02 06:36:03;;;;;;;5.53;1.27;;;;;;;;;;5007494;28;20056;-72
2023/04/02 06:38:30;;;;;;;5.38;1.27;;;;;;;;;;5010141;28;20146;-72
2023/04/02 06:40:57;;;;;;;5.55;1.50;;;;;;;;;;5009524;28;20129;-72
2023/04/02 06:43:32;;;;;;;4.97;1.02;;;;;;;;;;5004956;28;20051;-72
2023/04/02 06:45:58;;;;;;;;;;;;;;;;;;5007810;28;20733;-73
2023/04/02 06:48:24;;;;;;;3.85;1.52;;;;;;;;;;5003524;28;21765;-73
2023/04/02 06:50:54;;;;;;;3.83;0.80;;;;;;;;;;5004776;28;20049;-73
2023/04/02 06:53:35;;;;;;;6.70;1.15;;;;;;;;;;4990648;28;20061;-72
2023/04/02 06:56:03;;;;;;;3.13;1.05;;;;;;;;;;5012752;28;20049;-73
2023/04/02 06:58:30;;;;;;;3.00;0.98;;;;;;;;;;5008026;28;20068;-73
2023/04/02 07:00:56;;;;;;;7.95;1.85;;;;;;;;;;5009247;28;20049;-73
2023/04/02 07:03:26;;;;;;;2.97;1.23;;;;;;;;;;5013659;28;20421;-73
2023/04/02 07:05:53;;;;;;;4.65;1.00;;;;;;;;;;5011375;28;20498;-73
2023/04/02 07:08:19;;;;;;;10.40;1.50;;;;;;;;;;4998034;28;20090;-73
2023/04/02 07:10:45;;;;;;;5.03;1.15;;;;;;;;;;5013893;28;20056;-73
2023/04/02 07:13:15;;;;;;;3.50;1.15;;;;;;;;;;4997059;28;20056;-72
2023/04/02 07:15:42;;;;;;;4.15;0.85;;;;;;;;;;5013154;28;20623;-72
2023/04/02 07:18:16;;;;;;;5.00;1.45;;;;;;;;;;5014192;28;20049;-73
2023/04/02 07:20:42;;;;;;;4.88;1.20;;;;;;;;;;5014167;28;20056;-73
2023/04/02 07:23:09;;;;;;;5.65;1.40;;;;;;;;;;5015890;28;20044;-73
2023/04/02 07:25:35;;;;;;;4.82;1.35;;;;;;;;;;5016713;28;20040;-73
2023/04/02 07:28:01;;;;;;;4.20;1.23;;;;;;;;;;5012853;28;20123;-73
2023/04/02 07:30:27;;;;;;;7.78;1.60;;;;;;;;;;5009391;28;20053;-72
2023/04/02 07:32:53;;;;;;;3.42;1.10;;;;;;;;;;5017544;28;20386;-72
2023/04/02 07:35:19;;;;;;;4.68;0.98;;;;;;;;;;5013892;28;20049;-73
2023/04/02 07:37:46;;;;;;;3.17;1.02;;;;;;;;;;5011900;28;21433;-74
2023/04/02 07:40:17;;;;;;;5.75;1.15;;;;;;;;;;5011311;28;21701;-72
2023/04/02 07:42:43;;;;;;;5.13;1.10;;;;;;;;;;5010665;28;20521;-71
2023/04/02 07:45:09;;;;;;;3.83;1.33;;;;;;;;;;5010199;28;20150;-72
2023/04/02 07:47:35;;;;;;;4.72;1.25;;;;;;;;;;5012971;28;21633;-72
2023/04/02 07:50:02;;;;;;;6.28;1.10;;;;;;;;;;5010207;28;20044;-74
2023/04/02 07:52:28;;;;;;;4.25;1.38;;;;;;;;;;5015814;28;20045;-71
2023/04/02 07:54:55;;;;;;;7.53;1.20;;;;;;;;;;5011943;28;20535;-72
2023/04/02 07:57:21;;;;;;;3.45;0.85;;;;;;;;;;5010749;28;20658;-74
2023/04/02 07:59:47;;;;;;;10.45;1.48;;;;;;;;;;5005165;28;20120;-73
2023/04/02 08:02:22;;;;;;;8.32;1.27;;;;;;;;;;5004610;28;20076;-73
2023/04/02 08:04:50;;;;;;;4.60;1.70;;;;;;;;;;5005904;28;21566;-74
2023/04/02 08:07:17;;;;;;;2.67;1.20;;;;;;;;;;5003099;28;20053;-74
2023/04/02 08:09:43;;;;;;;4.32;1.38;;;;;;;;;;5007796;28;20057;-74
2023/04/02 08:12:13;;;;;;;1.63;0.85;;;;;;;;;;5006360;28;20041;-73
2023/04/02 08:14:39;;;;;;;6.82;1.85;;;;;;;;;;5007828;28;20147;-74
2023/04/02 08:17:05;;;;;;;3.50;1.25;;;;;;;;;;5005437;28;20796;-74
2023/04/02 08:19:33;;;;;;;4.97;1.65;;;;;;;;;;5001509;28;20045;-74
2023/04/02 08:21:59;;;;;;;5.57;1.60;;;;;;;;;;5006742;28;20449;-72
2023/04/02 08:24:26;;;;;;;6.32;1.30;;;;;;;;;;5003207;28;20048;-72
2023/04/02 08:26:53;;;;;;;4.13;0.98;;;;;;;;;;5006281;28;20124;-74
2023/04/02 08:29:19;;;;;;;3.05;1.30;;;;;;;;;;5005887;28;20390;-74
2023/04/02 08:31:45;;;;;;;4.72;1.27;;;;;;;;;;5011746;28;20045;-74
2023/04/02 08:34:12;;;;;;;7.43;1.30;;;;;;;;;;5008771;28;20152;-74
2023/04/02 08:36:39;;;;;;;4.72;1.67;;;;;;;;;;5017986;28;20156;-74
2023/04/02 08:39:10;;;;;;;7.18;1.35;;;;;;;;;;5013530;28;20118;-74
2023/04/02 08:41:57;;;;;;;4.10;1.10;;;;;;;;;;5010554;28;20401;-74
2023/04/02 08:44:35;;;;;;;3.75;1.10;;;;;;;;;;5014238;28;20053;-73
2023/04/02 08:47:06;;;;;;;5.70;1.48;;;;;;;;;;5013673;28;20050;-74
2023/04/02 08:49:35;;;;;;;4.15;0.70;;;;;;;;;;5013829;28;20436;-74
2023/04/02 08:52:01;;;;;;;6.68;1.98;;;;;;;;;;5011359;28;20209;-74
2023/04/02 08:54:30;;;;;;;3.70;1.02;;;;;;;;;;5016952;28;20037;-74
2023/04/02 08:57:02;;;;;;;5.35;1.40;;;;;;;;;;5011639;28;20052;-73
2023/04/02 08:59:32;;;;;;;3.75;1.00;;;;;;;;;;4995858;28;20056;-71
2023/04/02 09:02:18;;;;;;;4.53;0.82;;;;;;;;;;5016641;28;20041;-72
2023/04/02 09:04:44;;;;;;;3.20;1.05;;;;;;;;;;5014258;28;20164;-72
2023/04/02 09:07:13;;;;;;;5.22;1.10;;;;;;;;;;5015708;28;20098;-71
2023/04/02 09:09:40;;;;;;;5.32;0.90;;;;;;;;;;5014593;28;21186;-72
2023/04/02 09:12:07;;;;;;;5.60;1.27;;;;;;;;;;5013535;28;20664;-72
2023/04/02 09:14:42;;;;;;;2.95;1.00;;;;;;;;;;5013710;28;20749;-72
2023/04/02 09:17:28;;;;;;;2.53;1.00;;;;;;;;;;5015003;28;20048;-71
2023/04/02 09:19:56;;;;;;;2.55;0.77;;;;;;;;;;5017332;28;20064;-72
2023/04/02 09:22:23;;;;;;;4.50;1.02;;;;;;;;;;4995038;28;20114;-72
2023/04/02 09:24:57;;;;;;;6.38;0.90;;;;;;;;;;5015293;28;20124;-73
2023/04/02 09:27:25;;;;;;;3.95;0.80;;;;;;;;;;4998414;28;20385;-73
2023/04/02 09:29:53;;;;;;;5.85;1.10;;;;;;;;;;5016953;28;20041;-73
2023/04/02 09:32:26;;;;;;;4.68;1.10;;;;;;;;;;4997032;28;20434;-73
2023/04/02 09:35:05;;;;;;;6.43;1.00;;;;;;;;;;5013962;28;20044;-73
2023/04/02 09:37:32;;;;;;;3.70;0.85;;;;;;;;;;5016139;28;20603;-73
2023/04/02 09:40:14;;;;;;;5.47;1.42;;;;;;;;;;5014497;28;20051;-73
2023/04/02 09:42:40;;;;;;;5.22;1.00;;;;;;;;;;5011328;28;20050;-73
2023/04/02 09:45:14;;;;;;;4.05;0.80;;;;;;;;;;5017540;28;20049;-73
2023/04/02 09:47:40;;;;;;;3.33;1.10;;;;;;;;;;5018330;28;20131;-72
2023/04/02 09:50:33;;;;;;;4.28;1.13;;;;;;;;;;5015636;28;20350;-73
2023/04/02 09:53:16;;;;;;;4.15;0.85;;;;;;;;;;5015676;28;20149;-73
2023/04/02 09:55:42;;;;;;;3.25;0.73;;;;;;;;;;5012073;28;20053;-72
2023/04/02 09:58:15;;;;;;;2.35;0.70;;;;;;;;;;5013545;28;20041;-72
2023/04/02 10:00:51;;;;;;;4.20;0.77;;;;;;;;;;5011699;28;20076;-73
2023/04/02 10:03:17;;;;;;;2.58;0.68;;;;;;;;;;5012352;28;20063;-72
2023/04/02 10:05:44;;;;;;;2.22;0.80;;;;;;;;;;5009070;28;20119;-73
2023/04/02 10:08:20;;;;;;;3.85;0.93;;;;;;;;;;4978015;28;20037;-73
2023/04/02 10:10:52;;;;;;;1.90;0.60;;;;;;;;;;5010344;28;20037;-73
2023/04/02 10:13:27;;;;;;;2.58;1.40;;;;;;;;;;5010106;28;20124;-72
2023/04/02 10:15:56;;;;;;;3.53;1.00;;;;;;;;;;5005592;28;20115;-72
2023/04/02 10:18:42;;;;;;;2.03;0.70;;;;;;;;;;5010646;28;20085;-72
2023/04/02 10:21:11;;;;;;;2.47;0.70;;;;;;;;;;5009859;28;20079;-72
2023/04/02 10:23:38;;;;;;;4.25;1.25;;;;;;;;;;5010339;28;20053;-73
2023/04/02 10:26:14;;;;;;;1.55;0.70;;;;;;;;;;4988296;28;20054;-73
2023/04/02 10:28:44;;;;;;;3.85;0.93;;;;;;;;;;5007625;28;20053;-73
2023/04/02 10:31:24;;;;;;;3.72;0.65;;;;;;;;;;5008394;28;20424;-73
2023/04/02 10:33:51;;;;;;;1.48;0.60;;;;;;;;;;5009906;28;20051;-73
2023/04/02 10:36:20;;;;;;;2.33;0.60;;;;;;;;;;5008310;28;20048;-73
2023/04/02 10:39:01;;;;;;;0.95;0.60;;;;;;;;;;5005550;28;20052;-73
2023/04/02 10:41:39;;;;;;;4.47;0.70;;;;;;;;;;5003849;28;20049;-73
2023/04/02 10:44:25;;;;;;;5.22;1.00;;;;;;;;;;5008918;28;20045;-73
2023/04/02 10:47:18;;;;;;;6.38;1.70;;;;;;;;;;5010631;28;20053;-72
2023/04/02 10:49:53;;;;;;;6.13;1.10;;;;;;;;;;5004887;28;20144;-73
2023/04/02 10:52:38;;;;;;;7.88;1.13;;;;;;;;;;5004694;28;21787;-73
2023/04/02 10:55:07;;;;;;;2.58;0.50;;;;;;;;;;5010550;28;20049;-73
2023/04/02 10:57:39;;;;;;;1.98;0.80;;;;;;;;;;5005830;28;20500;-73
2023/04/02 11:00:11;;;;;;;2.50;0.73;;;;;;;;;;5007082;28;20056;-73
2023/04/02 11:02:49;;;;;;;2.53;0.80;;;;;;;;;;5010512;28;20048;-73
2023/04/02 11:05:42;;;;;;;5.50;1.63;;;;;;;;;;5009656;28;21659;-73
2023/04/02 11:08:24;;;;;;;5.13;0.90;;;;;;;;;;5008084;28;21674;-73
2023/04/02 11:11:06;;;;;;;2.55;0.80;;;;;;;;;;5010077;28;20041;-73
2023/04/02 11:13:35;;;;;;;3.17;0.75;;;;;;;;;;5008938;28;20045;-74
2023/04/02 11:16:02;;;;;;;3.17;0.73;;;;;;;;;;5005256;28;20057;-73
2023/04/02 11:18:36;;;;;;;3.15;0.60;;;;;;;;;;5010384;28;20045;-72
2023/04/02 11:21:04;;;;;;;1.20;0.60;;;;;;;;;;5006066;28;20057;-73
2023/04/02 11:23:35;;;;;;;2.30;0.93;;;;;;;;;;5011080;28;20044;-73
2023/04/02 11:26:20;;;;;;;1.30;0.70;;;;;;;;;;5008034;28;20041;-73
2023/04/02 11:28:46;;;;;;;6.63;1.05;;;;;;;;;;5007525;28;20054;-72
2023/04/02 11:31:19;;;;;;;1.00;0.70;;;;;;;;;;5012774;28;20052;-74
2023/04/02 11:33:45;;;;;;;2.38;0.85;;;;;;;;;;5013524;28;20048;-73
2023/04/02 11:36:47;;;;;;;0.90;0.80;;;;;;;;;;5014151;28;20081;-73
2023/04/02 11:39:33;;;;;;;1.42;0.70;;;;;;;;;;4996351;28;20048;-73
2023/04/02 11:42:01;;;;;;;1.33;0.55;;;;;;;;;;5011214;28;20053;-73
2023/04/02 11:44:27;;;;;;;2.97;0.85;;;;;;;;;;5011432;28;21421;-73
2023/04/02 11:47:13;;;;;;;3.55;1.00;;;;;;;;;;5012698;28;20063;-73
2023/04/02 11:49:40;;;;;;;4.75;0.77;;;;;;;;;;5012057;28;20154;-73
2023/04/02 11:52:19;;;;;;;4.03;1.00;;;;;;;;;;5013188;28;20056;-73
2023/04/02 11:54:46;;;;;;;1.13;0.60;;;;;;;;;;5012291;28;20541;-73
2023/04/02 11:57:18;;;;;;;2.53;0.70;;;;;;;;;;5011047;28;20042;-73
2023/04/02 11:59:52;;;;;;;2.53;0.80;;;;;;;;;;4995478;28;20501;-73
2023/04/02 12:02:18;;;;;;;1.05;0.60;;;;;;;;;;5011284;28;20079;-74
2023/04/02 12:04:55;;;;;;;2.88;0.80;;;;;;;;;;5013344;28;20478;-73
2023/04/02 12:07:25;;;;;;;2.28;0.70;;;;;;;;;;5012171;28;20075;-72
2023/04/02 12:09:56;;;;;;;2.67;0.98;;;;;;;;;;5014539;28;20683;-73
2023/04/02 12:12:26;;;;;;;1.92;0.77;;;;;;;;;;5009551;28;20037;-72
2023/04/02 12:14:54;;;;;;;1.33;0.70;;;;;;;;;;5012129;28;21595;-73
2023/04/02 12:17:31;;;;;;;2.45;0.70;;;;;;;;;;5013246;28;20053;-72
2023/04/02 12:19:59;;;;;;;3.53;1.00;;;;;;;;;;5012539;28;20045;-72
2023/04/02 12:22:30;;;;;;;2.70;0.70;;;;;;;;;;5011963;28;20037;-73
2023/04/02 12:25:06;;;;;;;2.15;0.70;;;;;;;;;;5013596;28;20606;-72
2023/04/02 12:27:36;;;;;;;2.45;0.80;;;;;;;;;;5012189;28;20505;-72
2023/04/02 12:30:14;;;;;;;2.70;0.80;;;;;;;;;;5013905;28;20049;-72
2023/04/02 12:32:40;;;;;;;1.88;0.85;;;;;;;;;;5013016;28;20160;-72
2023/04/02 12:35:16;;;;;;;3.38;0.90;;;;;;;;;;5013267;28;20737;-72
2023/04/02 12:37:42;;;;;;;2.60;0.77;;;;;;;;;;5013939;28;20053;-73
2023/04/02 12:40:18;;;;;;;2.47;0.80;;;;;;;;;;5013048;28;20033;-72
2023/04/02 12:42:44;;;;;;;2.67;0.90;;;;;;;;;;5012651;28;20135;-72
2023/04/02 12:45:20;;;;;;;1.65;0.60;;;;;;;;;;5011184;28;20037;-72
2023/04/02 12:47:48;;;;;;;5.30;1.10;;;;;;;;;;5010971;28;20071;-72
2023/04/02 12:50:15;;;;;;;3.75;1.05;;;;;;;;;;5013311;28;20504;-72
2023/04/02 12:52:45;;;;;;;2.28;0.77;;;;;;;;;;5014359;28;20432;-72
2023/04/02 12:55:16;;;;;;;1.73;0.70;;;;;;;;;;5013307;28;20128;-72
2023/04/02 12:57:47;;;;;;;2.50;1.08;;;;;;;;;;5016282;28;20553;-72
2023/04/02 13:00:20;;;;;;;3.63;0.80;;;;;;;;;;5013272;28;20050;-73
2023/04/02 13:02:52;;;;;;;2.17;0.90;;;;;;;;;;5017536;28;20056;-72
2023/04/02 13:05:51;;;;;;;2.10;0.70;;;;;;;;;;5012353;28;20072;-72
2023/04/02 13:08:28;;;;;;;7.57;1.05;;;;;;;;;;5001880;28;20137;-72
2023/04/02 13:10:59;;;;;;;1.13;0.80;;;;;;;;;;5016062;28;20049;-72
2023/04/02 13:13:28;;;;;;;1.70;0.75;;;;;;;;;;5018009;28;20457;-72
2023/04/02 13:16:07;;;;;;;2.75;0.80;;;;;;;;;;5017964;28;20071;-72
2023/04/02 13:18:35;;;;;;;2.40;0.77;;;;;;;;;;5018789;28;20052;-71
2023/04/02 13:21:02;;;;;;;2.88;0.90;;;;;;;;;;5019041;28;20175;-71
2023/04/02 13:23:28;;;;;;;1.90;1.10;;;;;;;;;;5020545;28;20068;-71
2023/04/02 13:25:55;;;;;;;3.03;0.95;;;;;;;;;;5022100;28;20053;-71
2023/04/02 13:28:21;;;;;;;1.90;1.00;;;;;;;;;;5022414;28;20180;-71
2023/04/02 13:30:47;;;;;;;2.25;0.88;;;;;;;;;;5010617;28;20080;-71
2023/04/02 13:33:14;;;;;;;3.70;0.90;;;;;;;;;;5018931;28;20033;-71
2023/04/02 13:35:40;;;;;;;1.73;0.98;;;;;;;;;;5019319;28;20551;-71
2023/04/02 13:38:07;;;;;;;3.33;0.80;;;;;;;;;;5022699;28;20049;-75
2023/04/02 13:40:34;;;;;;;3.70;0.80;;;;;;;;;;5022964;28;20117;-75
2023/04/02 13:43:01;;;;;;;1.75;0.85;;;;;;;;;;5025072;28;20052;-75
2023/04/02 13:45:30;;;;;;;2.97;1.00;;;;;;;;;;5024259;28;20049;-76
2023/04/02 13:48:00;;;;;;;3.53;1.10;;;;;;;;;;5026762;28;20073;-76
2023/04/02 13:50:27;;;;;;;1.33;0.95;;;;;;;;;;5025016;28;20041;-76
2023/04/02 13:52:53;;;;;;;2.40;1.40;;;;;;;;;;5023722;28;20097;-76
2023/04/02 13:55:21;;;;;;;3.63;1.20;;;;;;;;;;5016031;28;20083;-76
2023/04/02 13:57:48;;;;;;;4.28;0.80;;;;;;;;;;5016963;28;20056;-76
2023/04/02 14:00:15;;;;;;;2.10;0.80;;;;;;;;;;5014481;28;20115;-76
2023/04/02 14:02:45;;;;;;;3.03;0.90;;;;;;;;;;5016732;28;20564;-76
2023/04/02 14:05:17;;;;;;;1.33;0.70;;;;;;;;;;5016669;28;20070;-76
2023/04/02 14:07:50;;;;;;;2.83;1.10;;;;;;;;;;5016857;28;20068;-76
2023/04/02 14:10:29;;;;;;;3.10;1.02;;;;;;;;;;5017406;28;20049;-76
2023/04/02 14:13:11;;;;;;;1.92;0.75;;;;;;;;;;5014987;28;20052;-76
2023/04/02 14:15:51;;;;;;;2.97;0.90;;;;;;;;;;5015440;28;21010;-76
2023/04/02 14:18:17;;;;;;;2.55;0.70;;;;;;;;;;5013749;28;20040;-77
2023/04/02 14:20:49;;;;;;;3.85;0.70;;;;;;;;;;5013258;28;20064;-76
2023/04/02 14:23:36;;;;;;;2.05;0.77;;;;;;;;;;5014625;28;20458;-76
2023/04/02 14:26:05;;;;;;;3.00;0.68;;;;;;;;;;5014313;28;20063;-76
2023/04/02 14:28:40;;;;;;;3.88;1.10;;;;;;;;;;5015462;28;20117;-76
2023/04/02 14:31:27;;;;;;;1.88;0.90;;;;;;;;;;5016818;28;20079;-76
2023/04/02 14:34:01;;;;;;;1.05;0.70;;;;;;;;;;5015523;28;20385;-76
2023/04/02 14:36:30;;;;;;;5.28;2.25;;;;;;;;;;5019316;28;20126;-74
2023/04/02 14:39:03;;;;;;;1.50;0.82;;;;;;;;;;4999223;28;20076;-71
2023/04/02 14:41:41;;;;;;;0.63;0.47;;;;;;;;;;5013648;28;20071;-71
2023/04/02 14:44:08;;;;;;;2.97;0.93;;;;;;;;;;5016989;28;20537;-71
2023/04/02 14:46:36;;;;;;;1.83;0.68;;;;;;;;;;5012443;28;20128;-71
2023/04/02 14:49:11;;;;;;;2.28;0.80;;;;;;;;;;5012160;28;20040;-71
2023/04/02 14:51:50;;;;;;;2.80;0.73;;;;;;;;;;5012412;28;20045;-71
2023/04/02 14:54:28;;;;;;;4.90;1.00;;;;;;;;;;5015002;28;20045;-71
2023/04/02 14:57:01;;;;;;;1.67;1.10;;;;;;;;;;5011283;28;20049;-71
2023/04/02 14:59:30;;;;;;;3.85;0.80;;;;;;;;;;5011448;28;20139;-71
2023/04/02 15:01:59;;;;;;;3.22;0.90;;;;;;;;;;5013859;28;20048;-71
2023/04/02 15:04:32;;;;;;;2.25;1.00;;;;;;;;;;4997363;28;20099;-72
2023/04/02 15:07:13;;;;;;;1.05;0.68;;;;;;;;;;5014932;28;20063;-73
2023/04/02 15:09:44;;;;;;;2.60;0.90;;;;;;;;;;5009268;28;20406;-73
2023/04/02 15:12:32;;;;;;;1.70;0.60;;;;;;;;;;5007448;28;20037;-72